Huddleston, Virginia
Current Conditions -  °F | °C
As of 3:24 AM on Monday 24 Nov 2014 (Local Time) from KLYH Reporting Station
Few Clouds Few Clouds  
Wind Chill: 52°   Ceiling: Unl
Heat Index: 52°   Visibility: 10mi
Dew Point: 52°   Wind: 7mph
Humidity: 100%   Direction: 180°S
Pressure: 29.71"   Gusts: NA
Location:  37.06°N, 79.55°W
Report Text: KLYH 240824Z AUTO 18006KT 10SM FEW002 FEW014 FEW023 11/11 A2971 RMK AO2 T01110111 $
Loading
Personal Weather Stations






























Interactive Weather Map New forecast layout! Learn more

10-Day Weather Forecast

Advertisements
Track Severe Weather on mobile